Time;durP1;ratioP1;P1;durP2;ratioP2;P2;SDS_P1;SDS_P2;PMS_P1;PMS_P2;Temp;Humidity;BMP_temperature;BMP_pressure;BME280_temperature;BME280_humidity;BME280_pressure;Samples;Min_cycle;Max_cycle;Signal;HPM_P1;HPM_P2
2024/01/06 00:02:00;;;;;;;13.60;5.95;;;10.70;99.90;;;;;;6308965;22;20010;-71
2024/01/06 00:04:26;;;;;;;15.02;6.10;;;10.70;99.90;;;;;;6310318;22;20026;-70
2024/01/06 00:06:51;;;;;;;12.82;5.80;;;10.70;99.90;;;;;;6282646;22;20003;-71
2024/01/06 00:09:17;;;;;;;12.90;5.05;;;10.70;99.90;;;;;;6310221;22;20306;-70
2024/01/06 00:11:42;;;;;;;12.45;4.53;;;10.70;99.90;;;;;;6310249;22;20003;-70
2024/01/06 00:14:08;;;;;;;12.10;4.60;;;10.70;99.90;;;;;;6310346;22;20027;-70
2024/01/06 00:16:34;;;;;;;12.65;4.82;;;10.70;99.90;;;;;;6310358;22;20015;-70
2024/01/06 00:19:00;;;;;;;7.82;4.50;;;10.70;99.90;;;;;;6310524;22;20044;-70
2024/01/06 00:21:26;;;;;;;13.32;4.75;;;10.70;99.90;;;;;;6310591;22;20003;-71
2024/01/06 00:23:51;;;;;;;11.27;4.07;;;10.70;99.90;;;;;;6310507;22;20049;-70
2024/01/06 00:26:17;;;;;;;10.15;3.55;;;10.70;99.90;;;;;;6310085;22;19999;-71
2024/01/06 00:28:43;;;;;;;9.82;3.90;;;10.70;99.90;;;;;;6310067;22;20051;-70
2024/01/06 00:31:09;;;;;;;9.95;3.47;;;10.70;99.90;;;;;;6310374;22;20078;-70
2024/01/06 00:33:34;;;;;;;9.63;3.60;;;10.70;99.90;;;;;;6310219;22;20330;-70
2024/01/06 00:36:00;;;;;;;10.23;4.45;;;10.70;99.90;;;;;;6310333;22;20011;-70
2024/01/06 00:38:26;;;;;;;11.70;5.22;;;10.70;99.90;;;;;;6282896;22;20460;-70
2024/01/06 00:40:51;;;;;;;7.53;5.05;;;10.80;99.90;;;;;;6310288;22;20029;-70
2024/01/06 00:43:17;;;;;;;11.85;5.60;;;10.70;99.90;;;;;;6310462;22;19995;-71
2024/01/06 00:45:43;;;;;;;10.73;5.28;;;10.70;99.90;;;;;;6310401;22;20330;-70
2024/01/06 00:48:08;;;;;;;8.73;4.10;;;10.70;99.90;;;;;;6282846;22;20310;-70
2024/01/06 00:50:34;;;;;;;13.32;4.22;;;10.70;99.90;;;;;;6310337;22;19995;-70
2024/01/06 00:53:00;;;;;;;12.98;4.55;;;10.70;99.90;;;;;;6310257;22;20029;-70
2024/01/06 00:55:25;;;;;;;9.75;4.57;;;10.70;99.90;;;;;;6309688;22;20422;-70
2024/01/06 00:57:51;;;;;;;13.80;4.53;;;10.70;99.90;;;;;;6309748;22;20367;-71
2024/01/06 01:00:17;;;;;;;10.68;4.88;;;10.70;99.90;;;;;;6310343;22;20007;-71
2024/01/06 01:02:42;;;;;;;14.07;5.13;;;10.70;99.90;;;;;;6310181;22;20121;-70
2024/01/06 01:05:08;;;;;;;14.30;4.40;;;10.70;99.90;;;;;;6310073;22;20129;-70
2024/01/06 01:07:34;;;;;;;7.82;3.22;;;10.70;99.90;;;;;;6310187;22;20007;-70
2024/01/06 01:10:00;;;;;;;9.65;3.47;;;10.70;99.90;;;;;;6310091;22;20482;-70
2024/01/06 01:12:26;;;;;;;8.93;3.53;;;10.70;99.90;;;;;;6309507;22;19995;-70
2024/01/06 01:14:52;;;;;;;11.40;3.10;;;10.70;99.90;;;;;;6308451;22;20068;-70
2024/01/06 01:17:18;;;;;;;11.82;3.97;;;10.70;99.90;;;;;;6308019;22;20011;-70
2024/01/06 01:19:44;;;;;;;10.88;3.60;;;10.70;99.90;;;;;;6308627;22;20403;-71
2024/01/06 01:22:09;;;;;;;10.98;3.42;;;10.70;99.90;;;;;;6308576;22;20003;-71
2024/01/06 01:24:35;;;;;;;10.13;3.58;;;10.70;99.90;;;;;;6308583;22;19995;-70
2024/01/06 01:27:01;;;;;;;6.45;2.75;;;10.70;99.90;;;;;;6308299;22;20003;-70
2024/01/06 01:29:26;;;;;;;8.15;3.22;;;10.70;99.90;;;;;;6308568;22;20003;-70
2024/01/06 01:31:52;;;;;;;15.15;3.40;;;10.70;99.90;;;;;;6308608;22;20003;-70
2024/01/06 01:34:17;;;;;;;7.35;2.83;;;10.70;99.90;;;;;;6308442;22;19996;-70
2024/01/06 01:36:43;;;;;;;6.35;2.67;;;10.70;99.90;;;;;;6308313;22;20068;-71
2024/01/06 01:39:09;;;;;;;11.52;3.10;;;10.70;99.90;;;;;;6308264;22;20357;-71
2024/01/06 01:41:35;;;;;;;9.13;2.78;;;10.80;99.90;;;;;;6308345;22;20086;-71
2024/01/06 01:44:01;;;;;;;7.82;2.50;;;10.80;99.90;;;;;;6308138;22;20413;-70
2024/01/06 01:46:28;;;;;;;8.60;2.45;;;10.90;99.90;;;;;;6308502;22;20015;-70
2024/01/06 01:48:56;;;;;;;6.18;2.58;;;10.90;99.90;;;;;;6308115;22;20433;-70
2024/01/06 01:51:22;;;;;;;6.53;2.55;;;10.90;99.90;;;;;;6307999;22;20371;-70
2024/01/06 01:53:49;;;;;;;11.10;2.50;;;10.90;99.90;;;;;;6308287;22;20015;-70
2024/01/06 01:56:16;;;;;;;7.50;2.53;;;10.90;99.90;;;;;;6307682;22;20011;-70
2024/01/06 01:58:44;;;;;;;11.05;2.75;;;10.90;99.90;;;;;;6305063;22;20029;-71
2024/01/06 02:01:09;;;;;;;11.02;2.95;;;10.90;99.90;;;;;;6304281;22;20082;-70
2024/01/06 02:03:35;;;;;;;9.15;3.22;;;10.90;99.90;;;;;;6305332;22;20353;-70
2024/01/06 02:06:01;;;;;;;9.07;3.00;;;10.90;99.90;;;;;;6307782;22;20457;-70
2024/01/06 02:08:27;;;;;;;10.70;2.92;;;10.90;99.90;;;;;;6308076;22;19999;-71
2024/01/06 02:10:56;;;;;;;11.40;3.30;;;11.00;99.90;;;;;;6307895;22;19995;-70
2024/01/06 02:13:22;;;;;;;12.90;3.30;;;11.00;99.90;;;;;;6307083;22;20065;-71
2024/01/06 02:15:47;;;;;;;8.02;2.92;;;10.90;99.90;;;;;;6307814;22;20003;-70
2024/01/06 02:18:13;;;;;;;8.77;3.03;;;10.90;99.90;;;;;;6280565;22;20011;-70
2024/01/06 02:20:43;;;;;;;10.32;3.85;;;10.90;99.90;;;;;;6307528;22;19995;-70
2024/01/06 02:23:09;;;;;;;13.45;3.60;;;11.00;99.90;;;;;;6307503;22;20061;-70
2024/01/06 02:25:35;;;;;;;10.68;3.42;;;10.90;99.90;;;;;;6307908;22;20003;-70
2024/01/06 02:28:01;;;;;;;11.52;3.30;;;10.90;99.90;;;;;;6307290;22;20321;-71
2024/01/06 02:30:26;;;;;;;8.98;3.00;;;10.90;99.90;;;;;;6279804;22;20030;-70
2024/01/06 02:32:52;;;;;;;6.88;3.10;;;11.00;99.90;;;;;;6307656;22;20056;-71
2024/01/06 02:35:18;;;;;;;6.72;3.22;;;11.00;99.90;;;;;;6307150;22;19999;-71
2024/01/06 02:37:44;;;;;;;12.93;3.45;;;11.00;99.90;;;;;;6307815;22;20011;-70
2024/01/06 02:40:10;;;;;;;14.68;4.25;;;11.00;99.90;;;;;;6307345;22;20052;-70
2024/01/06 02:42:36;;;;;;;13.65;4.07;;;11.10;99.90;;;;;;6307473;22;19995;-69
2024/01/06 02:45:02;;;;;;;18.08;4.80;;;11.10;99.90;;;;;;6307208;22;20051;-71
2024/01/06 02:47:27;;;;;;;11.32;4.07;;;11.20;99.90;;;;;;6307299;22;20023;-70
2024/01/06 02:49:53;;;;;;;14.27;3.97;;;11.20;99.90;;;;;;6307706;22;20003;-70
2024/01/06 02:52:19;;;;;;;15.57;3.90;;;11.30;99.90;;;;;;6307781;22;20025;-71
2024/01/06 02:54:44;;;;;;;18.05;4.90;;;11.30;99.90;;;;;;6307424;22;20011;-70
2024/01/06 02:57:13;;;;;;;16.17;3.88;;;11.30;99.90;;;;;;6307125;22;20015;-71
2024/01/06 02:59:39;;;;;;;13.63;4.13;;;11.30;99.90;;;;;;6307417;22;20045;-70
2024/01/06 03:02:04;;;;;;;12.85;4.22;;;11.40;99.90;;;;;;6307668;22;20460;-70
2024/01/06 03:04:30;;;;;;;19.45;4.20;;;11.40;99.90;;;;;;6307723;22;20022;-70
2024/01/06 03:06:55;;;;;;;14.95;4.10;;;11.40;99.90;;;;;;6307627;22;20011;-70
2024/01/06 03:09:21;;;;;;;17.48;4.72;;;11.40;99.90;;;;;;6307415;22;20000;-71
2024/01/06 03:11:47;;;;;;;16.25;4.95;;;11.50;99.90;;;;;;6307615;22;20025;-71
2024/01/06 03:14:12;;;;;;;16.17;4.25;;;11.60;99.90;;;;;;6307747;22;20344;-70
2024/01/06 03:16:39;;;;;;;18.20;4.32;;;11.60;99.90;;;;;;6306997;22;20071;-70
2024/01/06 03:19:04;;;;;;;15.63;4.57;;;11.70;99.90;;;;;;6307282;22;20070;-71
2024/01/06 03:21:30;;;;;;;13.10;3.90;;;11.70;99.90;;;;;;6307022;22;20080;-71
2024/01/06 03:23:55;;;;;;;16.13;3.80;;;11.70;99.90;;;;;;6279900;22;20004;-69
2024/01/06 03:26:21;;;;;;;12.07;3.53;;;11.80;99.90;;;;;;6307389;22;20000;-70
2024/01/06 03:28:49;;;;;;;14.18;3.65;;;11.80;99.90;;;;;;6307035;22;20166;-71
2024/01/06 03:31:15;;;;;;;6.88;2.92;;;11.80;99.90;;;;;;6307640;22;19995;-70
2024/01/06 03:33:42;;;;;;;15.82;3.78;;;11.80;99.90;;;;;;6307345;22;20006;-70
2024/01/06 03:36:08;;;;;;;10.65;3.25;;;11.80;99.90;;;;;;6306257;22;20007;-70
2024/01/06 03:38:34;;;;;;;10.05;3.15;;;11.80;99.90;;;;;;6307003;22;20003;-70
2024/01/06 03:40:59;;;;;;;9.80;3.13;;;11.80;99.90;;;;;;6307951;22;20046;-70
2024/01/06 03:43:25;;;;;;;8.90;2.58;;;11.80;99.90;;;;;;6307378;22;20440;-70
2024/01/06 03:45:51;;;;;;;12.10;4.13;;;11.80;99.90;;;;;;6307080;22;20054;-69
2024/01/06 03:48:17;;;;;;;6.97;3.15;;;11.80;99.90;;;;;;6307107;22;20003;-70
2024/01/06 03:50:42;;;;;;;11.13;2.88;;;11.80;99.90;;;;;;6307138;22;19999;-70
2024/01/06 03:53:08;;;;;;;12.70;3.13;;;11.80;99.90;;;;;;6305734;22;20000;-70
2024/01/06 03:55:34;;;;;;;12.57;3.33;;;11.70;99.90;;;;;;6307073;22;20081;-70
2024/01/06 03:57:59;;;;;;;6.28;2.90;;;11.70;99.90;;;;;;6307057;22;20014;-70
2024/01/06 04:00:26;;;;;;;10.30;3.10;;;11.70;99.90;;;;;;6307196;22;19995;-70
2024/01/06 04:02:52;;;;;;;11.50;3.42;;;11.70;99.90;;;;;;6307123;22;20368;-71
2024/01/06 04:05:17;;;;;;;8.88;2.78;;;11.70;99.90;;;;;;6307148;22;19996;-70
2024/01/06 04:07:43;;;;;;;11.00;2.90;;;11.70;99.90;;;;;;6306961;22;19999;-70
2024/01/06 04:10:09;;;;;;;12.05;3.45;;;11.70;99.90;;;;;;6307174;22;20052;-69
2024/01/06 04:12:35;;;;;;;8.38;3.00;;;11.70;99.90;;;;;;6307084;22;20088;-70
2024/01/06 04:15:00;;;;;;;7.78;3.03;;;11.70;99.90;;;;;;6279834;22;20004;-70
2024/01/06 04:17:26;;;;;;;10.45;2.72;;;11.70;99.90;;;;;;6306972;22;20018;-70
2024/01/06 04:19:53;;;;;;;11.65;3.10;;;11.60;99.90;;;;;;6307242;22;19999;-70
2024/01/06 04:22:18;;;;;;;10.43;3.15;;;11.60;99.90;;;;;;6306791;22;20330;-71
2024/01/06 04:24:44;;;;;;;8.60;3.28;;;11.60;99.90;;;;;;6306890;22;20003;-70
2024/01/06 04:27:10;;;;;;;12.35;3.30;;;11.60;99.90;;;;;;6306754;22;20006;-70
2024/01/06 04:29:35;;;;;;;10.98;3.90;;;11.60;99.90;;;;;;6306533;22;20066;-70
2024/01/06 04:32:01;;;;;;;8.30;2.78;;;11.60;99.90;;;;;;6306546;22;20003;-70
2024/01/06 04:34:27;;;;;;;7.78;2.90;;;11.60;99.90;;;;;;6305646;22;20003;-71
2024/01/06 04:36:53;;;;;;;10.43;2.80;;;11.60;99.90;;;;;;6307173;22;20015;-71
2024/01/06 04:39:19;;;;;;;9.52;2.60;;;11.70;99.90;;;;;;6307142;22;20018;-71
2024/01/06 04:41:44;;;;;;;9.15;3.03;;;11.70;99.90;;;;;;6306990;22;20045;-71
2024/01/06 04:44:10;;;;;;;10.43;2.88;;;11.70;99.90;;;;;;6306918;22;19995;-71
2024/01/06 04:46:36;;;;;;;6.70;2.40;;;11.70;99.90;;;;;;6306358;22;19999;-71
2024/01/06 04:49:02;;;;;;;7.70;2.35;;;11.60;99.90;;;;;;6307710;22;20003;-71
2024/01/06 04:51:28;;;;;;;10.15;3.25;;;11.60;99.90;;;;;;6308841;22;20003;-71
2024/01/06 04:53:54;;;;;;;7.60;3.00;;;11.60;99.90;;;;;;6308670;22;20021;-71
2024/01/06 04:56:19;;;;;;;8.15;2.85;;;11.60;99.90;;;;;;6308943;22;20042;-71
2024/01/06 04:58:45;;;;;;;9.48;2.97;;;11.60;99.90;;;;;;6281464;22;20004;-72
2024/01/06 05:01:12;;;;;;;12.73;3.17;;;11.60;99.90;;;;;;6308373;22;20002;-72
2024/01/06 05:03:37;;;;;;;14.18;2.97;;;11.60;99.90;;;;;;6308219;22;20003;-71
2024/01/06 05:06:04;;;;;;;8.65;2.90;;;11.60;99.90;;;;;;6308658;22;20078;-72
2024/01/06 05:08:31;;;;;;;9.57;2.83;;;11.50;99.90;;;;;;6308531;22;20006;-71
2024/01/06 05:10:56;;;;;;;9.50;3.17;;;11.50;99.90;;;;;;6309040;22;20018;-72
2024/01/06 05:13:22;;;;;;;11.73;3.80;;;11.50;99.90;;;;;;6308585;22;20325;-71
2024/01/06 05:15:48;;;;;;;11.70;3.22;;;11.50;99.90;;;;;;6308627;22;20026;-71
2024/01/06 05:18:14;;;;;;;8.52;2.72;;;11.50;99.90;;;;;;6308185;22;20326;-72
2024/01/06 05:20:40;;;;;;;11.45;3.08;;;11.50;99.90;;;;;;6308238;22;19996;-72
2024/01/06 05:23:07;;;;;;;9.63;3.00;;;11.50;99.90;;;;;;6307984;22;20124;-72
2024/01/06 05:25:32;;;;;;;8.60;2.90;;;11.50;99.90;;;;;;6308527;22;20034;-71
2024/01/06 05:27:58;;;;;;;7.50;2.45;;;11.50;99.90;;;;;;6308471;22;20061;-72
2024/01/06 05:30:24;;;;;;;11.90;2.70;;;11.50;99.90;;;;;;6308150;22;20007;-71
2024/01/06 05:32:49;;;;;;;9.20;3.10;;;11.60;99.90;;;;;;6308234;22;20006;-71
2024/01/06 05:35:18;;;;;;;7.30;2.70;;;11.60;99.90;;;;;;6308501;22;20003;-71
2024/01/06 05:37:44;;;;;;;9.98;2.88;;;11.50;99.90;;;;;;6308441;22;20007;-71
2024/01/06 05:40:11;;;;;;;8.73;3.00;;;11.50;99.90;;;;;;6307675;22;20022;-71
2024/01/06 05:42:37;;;;;;;7.18;3.25;;;11.50;99.90;;;;;;6280574;22;20060;-71
2024/01/06 05:45:03;;;;;;;7.78;3.13;;;11.50;99.90;;;;;;6308221;22;19999;-71
2024/01/06 05:47:28;;;;;;;9.98;3.65;;;11.50;99.90;;;;;;6308118;22;20025;-71
2024/01/06 05:49:54;;;;;;;10.23;3.20;;;11.50;99.90;;;;;;6308496;22;20078;-71
2024/01/06 05:52:20;;;;;;;9.07;3.00;;;11.50;99.90;;;;;;6307606;22;20345;-71
2024/01/06 05:54:45;;;;;;;8.88;3.10;;;11.50;99.90;;;;;;6307991;22;20011;-71
2024/01/06 05:57:11;;;;;;;11.27;3.72;;;11.60;99.90;;;;;;6307777;22;20439;-71
2024/01/06 05:59:37;;;;;;;8.40;3.58;;;11.50;99.90;;;;;;6307924;22;20078;-71
2024/01/06 06:02:03;;;;;;;9.45;2.60;;;11.50;99.90;;;;;;6307917;22;20010;-71
2024/01/06 06:04:29;;;;;;;7.43;2.88;;;11.50;99.90;;;;;;6306593;22;20053;-71
2024/01/06 06:06:55;;;;;;;14.57;3.50;;;11.50;99.90;;;;;;6308202;22;20007;-71
2024/01/06 06:09:21;;;;;;;13.77;3.00;;;11.50;99.90;;;;;;6308095;22;20483;-72
2024/01/06 06:11:48;;;;;;;9.88;3.00;;;11.50;99.90;;;;;;6307849;22;20007;-71
2024/01/06 06:14:14;;;;;;;6.35;2.85;;;11.50;99.90;;;;;;6307578;22;20007;-71
2024/01/06 06:16:39;;;;;;;6.90;2.70;;;11.50;99.90;;;;;;6308144;22;20015;-71
2024/01/06 06:19:06;;;;;;;5.38;2.63;;;11.50;99.90;;;;;;6308034;22;19996;-71
2024/01/06 06:21:31;;;;;;;7.38;2.67;;;11.50;99.90;;;;;;6279967;22;20049;-71
2024/01/06 06:23:57;;;;;;;6.57;2.70;;;11.50;99.90;;;;;;6307640;22;19999;-72
2024/01/06 06:26:23;;;;;;;4.90;2.17;;;11.50;99.90;;;;;;6307617;22;20000;-71
2024/01/06 06:28:49;;;;;;;8.77;2.45;;;11.50;99.90;;;;;;6307716;22;20003;-72
2024/01/06 06:31:14;;;;;;;5.10;2.50;;;11.50;99.90;;;;;;6307725;22;20318;-71
2024/01/06 06:33:40;;;;;;;9.07;2.60;;;11.50;99.90;;;;;;6307772;22;20452;-71
2024/01/06 06:36:06;;;;;;;4.75;2.45;;;11.50;99.90;;;;;;6307252;22;20080;-71
2024/01/06 06:38:32;;;;;;;7.68;3.05;;;11.50;99.90;;;;;;6307819;22;20099;-71
2024/01/06 06:40:57;;;;;;;9.00;2.63;;;11.50;99.90;;;;;;6307689;22;20000;-71
2024/01/06 06:43:23;;;;;;;11.63;3.10;;;11.40;99.90;;;;;;6307864;22;20027;-71
2024/01/06 06:45:49;;;;;;;8.00;4.72;;;11.40;99.90;;;;;;6307656;22;19999;-72
2024/01/06 06:48:14;;;;;;;10.75;4.50;;;11.50;99.90;;;;;;6307365;22;20030;-71
2024/01/06 06:50:41;;;;;;;12.70;3.72;;;11.50;99.90;;;;;;6307708;22;20002;-72
2024/01/06 06:53:07;;;;;;;7.65;3.90;;;11.50;99.90;;;;;;6307474;22;20007;-72
2024/01/06 06:55:33;;;;;;;10.45;3.78;;;11.50;99.90;;;;;;6307316;22;20007;-71
2024/01/06 06:57:59;;;;;;;7.55;3.25;;;11.40;99.90;;;;;;6307587;22;20011;-71
2024/01/06 07:00:25;;;;;;;7.95;2.78;;;11.50;99.90;;;;;;6307547;22;20057;-71
2024/01/06 07:02:51;;;;;;;8.38;2.58;;;11.50;99.90;;;;;;6307855;22;20030;-71
2024/01/06 07:05:17;;;;;;;7.93;2.65;;;11.40;99.90;;;;;;6307855;22;20404;-72
2024/01/06 07:07:46;;;;;;;8.40;2.75;;;11.50;99.90;;;;;;6307044;22;20035;-72
2024/01/06 07:10:12;;;;;;;8.48;3.13;;;11.40;99.90;;;;;;6307408;22;20049;-71
2024/01/06 07:12:39;;;;;;;5.28;2.60;;;11.50;99.90;;;;;;6280089;22;20033;-71
2024/01/06 07:15:05;;;;;;;8.50;2.65;;;11.40;99.90;;;;;;6307234;22;20019;-72
2024/01/06 07:17:30;;;;;;;5.30;2.42;;;11.50;99.90;;;;;;6306935;22;20011;-72
2024/01/06 07:19:56;;;;;;;7.60;2.95;;;11.40;99.90;;;;;;6307028;22;20005;-72
2024/01/06 07:22:22;;;;;;;10.63;3.60;;;11.40;99.90;;;;;;6307931;22;20007;-71
2024/01/06 07:24:48;;;;;;;6.93;2.88;;;11.40;99.90;;;;;;6307070;22;20004;-71
2024/01/06 07:27:14;;;;;;;8.15;2.95;;;11.40;99.90;;;;;;6306475;22;20011;-71
2024/01/06 07:29:40;;;;;;;7.63;3.13;;;11.40;99.90;;;;;;6306960;22;20303;-71
2024/01/06 07:32:06;;;;;;;7.50;2.75;;;11.40;99.90;;;;;;6307451;22;20085;-71
2024/01/06 07:34:32;;;;;;;8.82;3.28;;;11.40;99.90;;;;;;6307063;22;19999;-71
2024/01/06 07:36:58;;;;;;;13.82;3.45;;;11.40;99.90;;;;;;6306721;22;20007;-72
2024/01/06 07:39:24;;;;;;;6.70;3.33;;;11.40;99.90;;;;;;6306858;22;20006;-71
2024/01/06 07:41:50;;;;;;;9.07;3.30;;;11.40;99.90;;;;;;6307080;22;19999;-72
2024/01/06 07:44:16;;;;;;;8.15;3.50;;;11.40;99.90;;;;;;6307355;22;20087;-71
2024/01/06 07:46:42;;;;;;;9.48;3.58;;;11.40;99.90;;;;;;6307477;22;20448;-71
2024/01/06 07:49:08;;;;;;;6.45;3.55;;;11.40;99.90;;;;;;6306781;22;20007;-72
2024/01/06 07:51:34;;;;;;;7.32;3.88;;;11.40;99.90;;;;;;6306880;22;20003;-71
2024/01/06 07:54:01;;;;;;;7.03;3.20;;;11.40;99.90;;;;;;6306927;22;20014;-71
2024/01/06 07:56:27;;;;;;;9.88;4.40;;;11.40;99.90;;;;;;6307019;22;20341;-71
2024/01/06 07:58:52;;;;;;;8.38;3.60;;;11.40;99.90;;;;;;6306895;22;20027;-72
2024/01/06 08:01:18;;;;;;;11.45;3.38;;;11.40;99.90;;;;;;6307086;22;19999;-71
2024/01/06 08:03:44;;;;;;;7.25;3.20;;;11.40;99.90;;;;;;6307156;22;19995;-71
2024/01/06 08:06:10;;;;;;;7.45;3.30;;;11.40;99.90;;;;;;6307045;22;20003;-72
2024/01/06 08:08:36;;;;;;;7.32;3.75;;;11.40;99.90;;;;;;6306928;22;19995;-72
2024/01/06 08:11:02;;;;;;;12.70;3.55;;;11.40;99.90;;;;;;6306568;22;20058;-72
2024/01/06 08:13:27;;;;;;;8.43;3.78;;;11.40;99.90;;;;;;6306700;22;20066;-71
2024/01/06 08:15:53;;;;;;;8.45;4.07;;;11.40;99.90;;;;;;6306657;22;20005;-72
2024/01/06 08:18:21;;;;;;;10.95;5.05;;;11.40;99.90;;;;;;6307072;22;20022;-71
2024/01/06 08:20:46;;;;;;;10.35;4.90;;;11.40;99.90;;;;;;6302635;22;20014;-71
2024/01/06 08:23:12;;;;;;;11.27;4.63;;;11.40;99.90;;;;;;6304930;22;19999;-72
2024/01/06 08:25:38;;;;;;;10.43;4.57;;;11.50;99.90;;;;;;6306667;22;20011;-72
2024/01/06 08:28:04;;;;;;;11.25;4.38;;;11.40;99.90;;;;;;6308700;22;19995;-72
2024/01/06 08:30:30;;;;;;;7.47;3.60;;;11.40;99.90;;;;;;6308914;22;20593;-72
2024/01/06 08:32:56;;;;;;;7.63;3.72;;;11.40;99.90;;;;;;6308826;22;20022;-74
2024/01/06 08:35:21;;;;;;;8.82;4.45;;;11.40;99.90;;;;;;6308544;22;20048;-72
2024/01/06 08:37:47;;;;;;;9.60;5.45;;;11.40;99.90;;;;;;6308512;22;20019;-71
2024/01/06 08:40:13;;;;;;;9.63;4.50;;;11.40;99.90;;;;;;6308737;22;20000;-71
2024/01/06 08:42:39;;;;;;;12.20;4.43;;;11.50;99.90;;;;;;6308158;22;20022;-71
2024/01/06 08:45:05;;;;;;;9.82;4.30;;;11.40;99.90;;;;;;6306880;22;20417;-72
2024/01/06 08:47:31;;;;;;;13.20;4.72;;;11.40;99.90;;;;;;6277272;22;20019;-71
2024/01/06 08:49:56;;;;;;;10.75;4.65;;;11.50;99.90;;;;;;6305018;22;20042;-72
2024/01/06 08:52:22;;;;;;;13.32;6.35;;;11.40;99.90;;;;;;6306807;22;19996;-72
2024/01/06 08:54:49;;;;;;;11.40;6.53;;;11.50;99.90;;;;;;6308094;22;20022;-72
2024/01/06 08:57:15;;;;;;;14.05;7.85;;;11.40;99.90;;;;;;6308073;22;20426;-72
2024/01/06 08:59:41;;;;;;;14.07;6.93;;;11.40;99.90;;;;;;6306996;22;19999;-71
2024/01/06 09:02:07;;;;;;;10.70;6.63;;;11.40;99.90;;;;;;6302286;22;20011;-71
2024/01/06 09:04:33;;;;;;;10.50;6.63;;;11.40;99.90;;;;;;6305413;22;20010;-71
2024/01/06 09:06:58;;;;;;;13.88;7.28;;;11.50;99.90;;;;;;6308044;22;20330;-71
2024/01/06 09:09:24;;;;;;;13.98;6.68;;;11.40;99.90;;;;;;6280423;22;20338;-71
2024/01/06 09:11:50;;;;;;;12.20;6.47;;;11.50;99.90;;;;;;6267089;22;20011;-71
2024/01/06 09:14:19;;;;;;;11.25;6.63;;;11.50;99.90;;;;;;6280040;22;20007;-71
2024/01/06 09:16:45;;;;;;;14.75;7.40;;;11.50;99.90;;;;;;6307634;22;20034;-71
2024/01/06 09:19:11;;;;;;;10.73;6.90;;;11.50;99.90;;;;;;6307195;22;20409;-71
2024/01/06 09:21:36;;;;;;;11.48;6.90;;;11.40;99.90;;;;;;6307292;22;20010;-72
2024/01/06 09:24:06;;;;;;;18.50;8.35;;;11.50;99.90;;;;;;6306902;22;20007;-71
2024/01/06 09:26:33;;;;;;;12.52;7.43;;;11.50;99.90;;;;;;6307178;22;20026;-71
2024/01/06 09:29:00;;;;;;;12.82;7.70;;;11.50;99.90;;;;;;6306618;22;20027;-72
2024/01/06 09:31:26;;;;;;;10.82;7.05;;;11.50;99.90;;;;;;6307906;22;19999;-72
2024/01/06 09:33:51;;;;;;;14.75;7.75;;;11.50;99.90;;;;;;6307792;22;20003;-72
2024/01/06 09:36:18;;;;;;;11.00;7.82;;;11.50;99.90;;;;;;6308319;22;19999;-71
2024/01/06 09:38:44;;;;;;;14.18;7.53;;;11.50;99.90;;;;;;6308423;22;20007;-72
2024/01/06 09:41:10;;;;;;;11.18;8.02;;;11.50;99.90;;;;;;6308049;22;19999;-71
2024/01/06 09:43:37;;;;;;;11.30;7.35;;;11.50;99.90;;;;;;6308185;22;20341;-72
2024/01/06 09:46:21;;;;;;;12.10;6.63;;;11.50;99.90;;;;;;6307957;22;20007;-71
2024/01/06 09:48:48;;;;;;;16.23;8.20;;;11.50;99.90;;;;;;6307996;22;20049;-71
2024/01/06 09:51:15;;;;;;;13.57;8.13;;;11.50;99.90;;;;;;6280738;22;20353;-71
2024/01/06 09:53:49;;;;;;;12.52;8.23;;;11.40;99.90;;;;;;6307846;22;20492;-71
2024/01/06 09:56:16;;;;;;;12.40;8.27;;;11.50;99.90;;;;;;6307665;22;20337;-71
2024/01/06 09:58:42;;;;;;;13.52;6.25;;;11.40;99.90;;;;;;6308158;22;20011;-71
2024/01/06 10:01:09;;;;;;;9.43;6.75;;;11.40;99.90;;;;;;6308224;22;20005;-71
2024/01/06 10:03:38;;;;;;;8.95;6.43;;;11.50;99.90;;;;;;6307633;22;20326;-71
2024/01/06 10:06:04;;;;;;;13.35;6.90;;;11.50;99.90;;;;;;6307914;22;20003;-71
2024/01/06 10:08:32;;;;;;;5.55;3.67;;;11.60;99.90;;;;;;6308154;22;20038;-71
2024/01/06 10:11:00;;;;;;;7.40;3.83;;;11.60;99.90;;;;;;6308284;22;19995;-71
2024/01/06 10:13:25;;;;;;;7.75;3.63;;;11.60;99.90;;;;;;6307341;22;20074;-71
2024/01/06 10:15:51;;;;;;;8.20;4.43;;;11.50;99.90;;;;;;6307402;22;20027;-71
2024/01/06 10:18:18;;;;;;;8.55;5.05;;;11.50;99.90;;;;;;6308055;22;20013;-71
2024/01/06 10:20:45;;;;;;;6.65;5.05;;;11.50;99.90;;;;;;6308151;22;20044;-71
2024/01/06 10:23:11;;;;;;;155.57;98.88;;;11.50;99.90;;;;;;6307882;22;20082;-71
2024/01/06 10:25:37;;;;;;;73.00;44.22;;;11.40;99.90;;;;;;6307966;22;20038;-71
2024/01/06 10:28:03;;;;;;;37.53;19.88;;;11.40;99.90;;;;;;6307825;22;19995;-71
2024/01/06 10:30:29;;;;;;;23.15;15.38;;;11.40;99.90;;;;;;6308376;22;20007;-70
2024/01/06 10:32:54;;;;;;;10.90;8.07;;;11.40;99.90;;;;;;6307542;22;19995;-71
2024/01/06 10:35:20;;;;;;;11.75;7.10;;;11.50;99.90;;;;;;6307828;22;20006;-71
2024/01/06 10:37:47;;;;;;;24.10;17.25;;;11.40;99.90;;;;;;6308046;22;20021;-71
2024/01/06 10:40:18;;;;;;;8.20;5.15;;;11.50;99.90;;;;;;6308075;22;19995;-71
2024/01/06 10:42:45;;;;;;;10.20;5.38;;;11.50;99.90;;;;;;6307608;22;19999;-71
2024/01/06 10:45:13;;;;;;;8.38;5.85;;;11.50;99.90;;;;;;6307958;22;20066;-71
2024/01/06 10:47:41;;;;;;;10.88;6.30;;;11.50;99.90;;;;;;6307303;22;20022;-71
2024/01/06 10:50:10;;;;;;;9.05;6.97;;;11.50;99.90;;;;;;6307623;22;19999;-70
2024/01/06 10:52:38;;;;;;;11.23;7.15;;;11.50;99.90;;;;;;6307424;22;20321;-71
2024/01/06 10:55:05;;;;;;;12.35;10.00;;;11.40;99.90;;;;;;6307258;22;20445;-71
2024/01/06 10:57:31;;;;;;;10.52;7.63;;;11.40;99.90;;;;;;6307300;22;20011;-71
2024/01/06 10:59:58;;;;;;;9.35;8.02;;;11.50;99.90;;;;;;6307566;22;20006;-71
2024/01/06 11:02:25;;;;;;;8.02;6.20;;;11.50;99.90;;;;;;6307536;22;19999;-71
2024/01/06 11:04:51;;;;;;;12.38;7.43;;;11.40;99.90;;;;;;6280295;22;20014;-71
2024/01/06 11:07:19;;;;;;;7.82;5.88;;;11.50;99.90;;;;;;6307203;22;20429;-71
2024/01/06 11:10:15;;;;;;;10.13;6.28;;;11.40;99.90;;;;;;6307248;22;19999;-71
2024/01/06 11:12:42;;;;;;;7.78;5.68;;;11.40;99.90;;;;;;6305648;22;20078;-71
2024/01/06 11:15:08;;;;;;;10.23;6.90;;;11.50;99.90;;;;;;6307000;22;19995;-71
2024/01/06 11:17:58;;;;;;;6.38;4.13;;;11.40;99.90;;;;;;6307244;22;20008;-71
2024/01/06 11:20:26;;;;;;;7.97;3.95;;;11.40;99.90;;;;;;6307082;22;20013;-71
2024/01/06 11:22:52;;;;;;;6.43;4.35;;;11.40;99.90;;;;;;6307318;22;20003;-70
2024/01/06 11:25:22;;;;;;;5.40;4.22;;;11.40;99.90;;;;;;6307462;22;20036;-70
2024/01/06 11:27:49;;;;;;;5.85;4.40;;;11.40;99.90;;;;;;6307374;22;19995;-70
2024/01/06 11:30:25;;;;;;;5.22;3.95;;;11.40;99.90;;;;;;6307579;22;20084;-71
2024/01/06 11:32:58;;;;;;;7.72;3.90;;;11.50;99.90;;;;;;6306637;22;20007;-71
2024/01/06 11:35:27;;;;;;;5.28;3.78;;;11.40;99.90;;;;;;6279307;22;19999;-71
2024/01/06 11:37:55;;;;;;;7.90;4.20;;;11.50;99.90;;;;;;6306560;22;20060;-71
2024/01/06 11:40:21;;;;;;;6.40;4.25;;;11.40;99.90;;;;;;6307231;22;20010;-71
2024/01/06 11:43:08;;;;;;;9.57;5.35;;;11.40;99.90;;;;;;6306872;22;20078;-71
2024/01/06 11:45:36;;;;;;;8.05;5.15;;;11.40;99.90;;;;;;6306855;22;20004;-71
2024/01/06 11:48:07;;;;;;;8.57;5.25;;;11.40;99.90;;;;;;6306981;22;20368;-71
2024/01/06 11:50:35;;;;;;;7.97;5.40;;;11.40;99.90;;;;;;6307285;22;20010;-71
2024/01/06 11:53:02;;;;;;;11.95;7.60;;;11.40;99.90;;;;;;6304987;22;19999;-71
2024/01/06 11:55:29;;;;;;;8.75;5.85;;;11.40;99.90;;;;;;6304227;22;20012;-74
2024/01/06 11:58:01;;;;;;;7.93;5.88;;;11.40;99.90;;;;;;6307000;22;20011;-75
2024/01/06 12:00:27;;;;;;;;;;;11.40;99.90;;;;;;6307570;22;19996;-74
2024/01/06 12:02:57;;;;;;;8.38;6.10;;;11.40;99.90;;;;;;6305230;22;20260;-75
2024/01/06 12:05:26;;;;;;;7.97;4.88;;;11.40;99.90;;;;;;6307054;22;20007;-74
2024/01/06 12:08:06;;;;;;;7.40;5.05;;;11.40;99.90;;;;;;6279160;22;20325;-74
2024/01/06 12:10:32;;;;;;;7.20;4.40;;;11.40;99.90;;;;;;6279229;22;20011;-74
2024/01/06 12:13:08;;;;;;;10.07;4.88;;;11.40;99.90;;;;;;6279482;22;20306;-73
2024/01/06 12:15:34;;;;;;;9.40;5.60;;;11.30;99.90;;;;;;6306742;22;20336;-74
2024/01/06 12:18:03;;;;;;;15.20;12.32;;;11.40;99.90;;;;;;6306620;22;20441;-74
2024/01/06 12:20:29;;;;;;;19.75;14.75;;;11.30;99.90;;;;;;6306517;22;20421;-74
2024/01/06 12:22:55;;;;;;;12.48;8.45;;;11.40;99.90;;;;;;6306713;22;20057;-74
2024/01/06 12:25:25;;;;;;;9.40;7.53;;;11.30;99.90;;;;;;6306760;22;20003;-75
2024/01/06 12:27:53;;;;;;;11.13;6.70;;;11.40;99.90;;;;;;6305981;22;20429;-75
2024/01/06 12:30:20;;;;;;;12.13;7.60;;;11.30;99.90;;;;;;6306462;22;19999;-74
2024/01/06 12:32:48;;;;;;;16.17;10.07;;;11.30;99.90;;;;;;6305250;22;20516;-74
2024/01/06 12:35:15;;;;;;;16.63;9.88;;;11.30;99.90;;;;;;6306541;22;20417;-74
2024/01/06 12:37:44;;;;;;;13.43;9.52;;;11.30;99.90;;;;;;6306171;22;20011;-74